OMFJ/FJR METAR and TAF weather

Enter ICAO airport designator
Station Type Date Time Source
OMFJ METAR 2019/10/23 21:00 UTC NOAA

OMFJ 232100Z 27003KT 4500 HZ NSC 28/16 Q1009 A2982


Station Type Date Time Source
OMFJ Decoded METAR 2019/10/23 21:00 UTC NOAA

Fujairah, United Arab Emirates (OMFJ) 25-06N 056-20E 28M
Oct 23, 2019 - 05:00 PM EDT / 2019.10.23 2100 UTC
Wind: from the W (270 degrees) at 3 MPH (3 KT):0
Visibility: 2 mile(s):0
Weather: haze
Temperature: 82 F (28 C)
Dew Point: 60 F (16 C)
Relative Humidity: 48%
Pressure (altimeter): 29.82 in. Hg (1009 hPa)
ob: OMFJ 232100Z 27003KT 4500 HZ NSC 28/16 Q1009 A2982
cycle: 21

Station Type Date Time Source
OMFJ TAF 2019/10/23 18:06 UTC NOAA

TAF TAF OMFJ 231700Z 2318/2424 VRB03KT 7000 NSC
TEMPO 2320/2403 29005KT 5000 HZ
BECMG 2405/2407 09007KT
BECMG 2414/2416 15005KT

Example: see airport list